sensor_id;sensor_type;location;lat;lon;timestamp;P1;durP1;ratioP1;P2;durP2;ratioP2
25327;SDS011;13279;51.300;12.394;2024-02-04T00:00:49;9.60;;;6.10;;
25327;SDS011;13279;51.300;12.394;2024-02-04T00:03:30;10.87;;;5.67;;
25327;SDS011;13279;51.300;12.394;2024-02-04T00:06:30;8.10;;;5.87;;
25327;SDS011;13279;51.300;12.394;2024-02-04T00:09:16;9.00;;;6.00;;
25327;SDS011;13279;51.300;12.394;2024-02-04T00:11:52;10.73;;;6.00;;
25327;SDS011;13279;51.300;12.394;2024-02-04T00:14:37;8.97;;;6.23;;
25327;SDS011;13279;51.300;12.394;2024-02-04T00:17:17;9.53;;;6.27;;
25327;SDS011;13279;51.300;12.394;2024-02-04T00:20:10;8.60;;;5.63;;
25327;SDS011;13279;51.300;12.394;2024-02-04T00:22:52;9.73;;;5.77;;
25327;SDS011;13279;51.300;12.394;2024-02-04T00:25:38;8.13;;;5.40;;
25327;SDS011;13279;51.300;12.394;2024-02-04T00:28:16;11.80;;;7.90;;
25327;SDS011;13279;51.300;12.394;2024-02-04T00:30:54;9.50;;;5.77;;
25327;SDS011;13279;51.300;12.394;2024-02-04T00:33:45;11.43;;;7.07;;
25327;SDS011;13279;51.300;12.394;2024-02-04T00:36:26;9.57;;;6.33;;
25327;SDS011;13279;51.300;12.394;2024-02-04T00:39:07;15.87;;;7.07;;
25327;SDS011;13279;51.300;12.394;2024-02-04T00:44:28;14.57;;;7.07;;
25327;SDS011;13279;51.300;12.394;2024-02-04T00:47:12;17.23;;;7.30;;
25327;SDS011;13279;51.300;12.394;2024-02-04T00:49:44;14.30;;;7.83;;
25327;SDS011;13279;51.300;12.394;2024-02-04T00:52:15;11.67;;;6.97;;
25327;SDS011;13279;51.300;12.394;2024-02-04T00:55:03;9.93;;;6.57;;
25327;SDS011;13279;51.300;12.394;2024-02-04T00:57:43;16.03;;;7.43;;
25327;SDS011;13279;51.300;12.394;2024-02-04T01:00:22;13.50;;;7.23;;
25327;SDS011;13279;51.300;12.394;2024-02-04T01:03:00;18.03;;;6.83;;
25327;SDS011;13279;51.300;12.394;2024-02-04T01:05:41;19.73;;;6.87;;
25327;SDS011;13279;51.300;12.394;2024-02-04T01:08:15;11.17;;;6.33;;
25327;SDS011;13279;51.300;12.394;2024-02-04T01:11:17;10.10;;;5.90;;
25327;SDS011;13279;51.300;12.394;2024-02-04T01:13:55;10.93;;;6.30;;
25327;SDS011;13279;51.300;12.394;2024-02-04T01:16:42;8.70;;;5.73;;
25327;SDS011;13279;51.300;12.394;2024-02-04T01:19:16;12.27;;;6.33;;
25327;SDS011;13279;51.300;12.394;2024-02-04T01:22:08;14.87;;;5.77;;
25327;SDS011;13279;51.300;12.394;2024-02-04T01:24:44;9.37;;;5.30;;
25327;SDS011;13279;51.300;12.394;2024-02-04T01:27:23;11.17;;;5.63;;
25327;SDS011;13279;51.300;12.394;2024-02-04T01:29:56;7.97;;;4.80;;
25327;SDS011;13279;51.300;12.394;2024-02-04T01:32:54;11.53;;;4.33;;
25327;SDS011;13279;51.300;12.394;2024-02-04T01:35:42;7.83;;;5.20;;
25327;SDS011;13279;51.300;12.394;2024-02-04T01:38:25;10.77;;;5.17;;
25327;SDS011;13279;51.300;12.394;2024-02-04T01:41:17;6.87;;;5.07;;
25327;SDS011;13279;51.300;12.394;2024-02-04T01:44:04;8.77;;;4.60;;
25327;SDS011;13279;51.300;12.394;2024-02-04T01:46:38;7.70;;;5.10;;
25327;SDS011;13279;51.300;12.394;2024-02-04T01:49:09;9.27;;;5.27;;
25327;SDS011;13279;51.300;12.394;2024-02-04T01:51:58;6.77;;;4.60;;
25327;SDS011;13279;51.300;12.394;2024-02-04T01:55:05;10.70;;;5.93;;
25327;SDS011;13279;51.300;12.394;2024-02-04T01:57:35;11.47;;;5.17;;
25327;SDS011;13279;51.300;12.394;2024-02-04T02:00:10;16.77;;;5.63;;
25327;SDS011;13279;51.300;12.394;2024-02-04T02:02:40;11.83;;;6.20;;
25327;SDS011;13279;51.300;12.394;2024-02-04T02:05:23;14.07;;;7.00;;
25327;SDS011;13279;51.300;12.394;2024-02-04T02:07:55;20.27;;;7.57;;
25327;SDS011;13279;51.300;12.394;2024-02-04T02:10:38;16.57;;;8.80;;
25327;SDS011;13279;51.300;12.394;2024-02-04T02:13:11;20.13;;;8.80;;
25327;SDS011;13279;51.300;12.394;2024-02-04T02:15:51;29.77;;;10.00;;
25327;SDS011;13279;51.300;12.394;2024-02-04T02:18:26;20.47;;;9.10;;
25327;SDS011;13279;51.300;12.394;2024-02-04T02:21:08;21.80;;;9.97;;
25327;SDS011;13279;51.300;12.394;2024-02-04T02:24:14;24.50;;;9.97;;
25327;SDS011;13279;51.300;12.394;2024-02-04T02:29:56;20.10;;;9.53;;
25327;SDS011;13279;51.300;12.394;2024-02-04T02:32:36;19.67;;;9.83;;
25327;SDS011;13279;51.300;12.394;2024-02-04T02:35:26;21.90;;;10.37;;
25327;SDS011;13279;51.300;12.394;2024-02-04T02:38:13;19.90;;;8.73;;
25327;SDS011;13279;51.300;12.394;2024-02-04T02:41:14;25.30;;;9.40;;
25327;SDS011;13279;51.300;12.394;2024-02-04T02:44:17;21.30;;;8.90;;
25327;SDS011;13279;51.300;12.394;2024-02-04T02:46:49;21.93;;;8.73;;
25327;SDS011;13279;51.300;12.394;2024-02-04T02:49:25;17.47;;;7.30;;
25327;SDS011;13279;51.300;12.394;2024-02-04T02:52:03;20.53;;;8.50;;
25327;SDS011;13279;51.300;12.394;2024-02-04T02:54:53;14.83;;;7.37;;
25327;SDS011;13279;51.300;12.394;2024-02-04T02:57:26;16.63;;;7.97;;
25327;SDS011;13279;51.300;12.394;2024-02-04T03:00:21;19.03;;;7.83;;
25327;SDS011;13279;51.300;12.394;2024-02-04T03:03:06;17.83;;;7.67;;
25327;SDS011;13279;51.300;12.394;2024-02-04T03:05:50;18.90;;;7.23;;
25327;SDS011;13279;51.300;12.394;2024-02-04T03:08:32;18.13;;;8.00;;
25327;SDS011;13279;51.300;12.394;2024-02-04T03:11:09;12.97;;;6.43;;
25327;SDS011;13279;51.300;12.394;2024-02-04T03:13:45;18.47;;;7.00;;
25327;SDS011;13279;51.300;12.394;2024-02-04T03:16:22;15.13;;;6.47;;
25327;SDS011;13279;51.300;12.394;2024-02-04T03:19:04;12.53;;;5.60;;
25327;SDS011;13279;51.300;12.394;2024-02-04T03:21:49;12.37;;;6.50;;
25327;SDS011;13279;51.300;12.394;2024-02-04T03:24:29;16.87;;;6.37;;
25327;SDS011;13279;51.300;12.394;2024-02-04T03:27:26;12.97;;;5.70;;
25327;SDS011;13279;51.300;12.394;2024-02-04T03:30:18;13.40;;;5.83;;
25327;SDS011;13279;51.300;12.394;2024-02-04T03:33:09;14.33;;;6.00;;
25327;SDS011;13279;51.300;12.394;2024-02-04T03:35:44;10.73;;;4.97;;
25327;SDS011;13279;51.300;12.394;2024-02-04T03:38:20;8.27;;;5.17;;
25327;SDS011;13279;51.300;12.394;2024-02-04T03:41:04;11.30;;;5.03;;
25327;SDS011;13279;51.300;12.394;2024-02-04T03:43:54;10.13;;;4.80;;
25327;SDS011;13279;51.300;12.394;2024-02-04T03:46:37;12.67;;;4.53;;
25327;SDS011;13279;51.300;12.394;2024-02-04T03:49:24;12.23;;;4.47;;
25327;SDS011;13279;51.300;12.394;2024-02-04T03:51:58;8.73;;;5.07;;
25327;SDS011;13279;51.300;12.394;2024-02-04T03:54:36;10.53;;;3.83;;
25327;SDS011;13279;51.300;12.394;2024-02-04T03:57:23;10.90;;;4.93;;
25327;SDS011;13279;51.300;12.394;2024-02-04T03:59:56;10.73;;;4.13;;
25327;SDS011;13279;51.300;12.394;2024-02-04T04:02:39;6.27;;;4.07;;
25327;SDS011;13279;51.300;12.394;2024-02-04T04:05:36;5.73;;;3.70;;
25327;SDS011;13279;51.300;12.394;2024-02-04T04:08:27;9.23;;;3.67;;
25327;SDS011;13279;51.300;12.394;2024-02-04T04:11:06;8.70;;;3.63;;
25327;SDS011;13279;51.300;12.394;2024-02-04T04:13:38;5.77;;;3.73;;
25327;SDS011;13279;51.300;12.394;2024-02-04T04:16:14;5.93;;;3.40;;
25327;SDS011;13279;51.300;12.394;2024-02-04T04:18:49;7.37;;;3.80;;
25327;SDS011;13279;51.300;12.394;2024-02-04T04:21:30;7.13;;;4.23;;
25327;SDS011;13279;51.300;12.394;2024-02-04T04:24:07;7.63;;;4.17;;
25327;SDS011;13279;51.300;12.394;2024-02-04T04:26:52;6.77;;;4.37;;
25327;SDS011;13279;51.300;12.394;2024-02-04T04:29:37;9.77;;;4.37;;
25327;SDS011;13279;51.300;12.394;2024-02-04T04:32:16;7.27;;;4.73;;
25327;SDS011;13279;51.300;12.394;2024-02-04T04:34:55;10.57;;;5.00;;
25327;SDS011;13279;51.300;12.394;2024-02-04T04:37:29;12.13;;;5.10;;
25327;SDS011;13279;51.300;12.394;2024-02-04T04:40:10;10.90;;;5.90;;
25327;SDS011;13279;51.300;12.394;2024-02-04T04:42:43;9.27;;;5.60;;
25327;SDS011;13279;51.300;12.394;2024-02-04T04:45:27;10.37;;;6.30;;
25327;SDS011;13279;51.300;12.394;2024-02-04T04:47:59;10.40;;;5.20;;
25327;SDS011;13279;51.300;12.394;2024-02-04T04:50:39;11.07;;;6.43;;
25327;SDS011;13279;51.300;12.394;2024-02-04T04:53:15;10.60;;;6.27;;
25327;SDS011;13279;51.300;12.394;2024-02-04T04:55:51;11.63;;;5.80;;
25327;SDS011;13279;51.300;12.394;2024-02-04T04:58:21;12.03;;;5.70;;
25327;SDS011;13279;51.300;12.394;2024-02-04T05:00:54;13.20;;;5.60;;
25327;SDS011;13279;51.300;12.394;2024-02-04T05:03:22;15.00;;;5.00;;
25327;SDS011;13279;51.300;12.394;2024-02-04T05:05:56;7.40;;;4.43;;
25327;SDS011;13279;51.300;12.394;2024-02-04T05:08:30;7.67;;;4.23;;
25327;SDS011;13279;51.300;12.394;2024-02-04T05:11:06;7.57;;;3.87;;
25327;SDS011;13279;51.300;12.394;2024-02-04T05:13:38;12.30;;;4.70;;
25327;SDS011;13279;51.300;12.394;2024-02-04T05:16:11;12.70;;;5.10;;
25327;SDS011;13279;51.300;12.394;2024-02-04T05:18:43;11.00;;;5.33;;
25327;SDS011;13279;51.300;12.394;2024-02-04T05:21:27;10.53;;;5.00;;
25327;SDS011;13279;51.300;12.394;2024-02-04T05:24:08;13.13;;;5.67;;
25327;SDS011;13279;51.300;12.394;2024-02-04T05:26:42;16.13;;;5.77;;
25327;SDS011;13279;51.300;12.394;2024-02-04T05:29:16;16.70;;;7.17;;
25327;SDS011;13279;51.300;12.394;2024-02-04T05:31:53;16.13;;;6.83;;
25327;SDS011;13279;51.300;12.394;2024-02-04T05:34:34;18.63;;;7.00;;
25327;SDS011;13279;51.300;12.394;2024-02-04T05:37:24;15.67;;;7.43;;
25327;SDS011;13279;51.300;12.394;2024-02-04T05:40:05;17.73;;;7.23;;
25327;SDS011;13279;51.300;12.394;2024-02-04T05:42:38;21.60;;;7.93;;
25327;SDS011;13279;51.300;12.394;2024-02-04T05:45:17;21.60;;;7.93;;
25327;SDS011;13279;51.300;12.394;2024-02-04T05:47:59;16.87;;;7.53;;
25327;SDS011;13279;51.300;12.394;2024-02-04T05:50:35;23.67;;;9.20;;
25327;SDS011;13279;51.300;12.394;2024-02-04T05:53:15;19.10;;;7.57;;
25327;SDS011;13279;51.300;12.394;2024-02-04T05:55:52;16.53;;;7.30;;
25327;SDS011;13279;51.300;12.394;2024-02-04T05:58:37;17.80;;;7.37;;
25327;SDS011;13279;51.300;12.394;2024-02-04T06:01:11;17.37;;;7.57;;
25327;SDS011;13279;51.300;12.394;2024-02-04T06:03:46;18.10;;;6.83;;
25327;SDS011;13279;51.300;12.394;2024-02-04T06:06:19;15.97;;;7.00;;
25327;SDS011;13279;51.300;12.394;2024-02-04T06:08:49;16.20;;;6.37;;
25327;SDS011;13279;51.300;12.394;2024-02-04T06:14:22;12.07;;;5.93;;
25327;SDS011;13279;51.300;12.394;2024-02-04T06:16:54;10.73;;;6.30;;
25327;SDS011;13279;51.300;12.394;2024-02-04T06:19:25;13.43;;;6.23;;
25327;SDS011;13279;51.300;12.394;2024-02-04T06:22:09;11.60;;;5.57;;
25327;SDS011;13279;51.300;12.394;2024-02-04T06:24:39;8.50;;;5.17;;
25327;SDS011;13279;51.300;12.394;2024-02-04T06:27:18;7.17;;;4.87;;
25327;SDS011;13279;51.300;12.394;2024-02-04T06:29:51;7.47;;;4.40;;
25327;SDS011;13279;51.300;12.394;2024-02-04T06:32:41;6.50;;;3.70;;
25327;SDS011;13279;51.300;12.394;2024-02-04T06:35:10;8.07;;;3.80;;
25327;SDS011;13279;51.300;12.394;2024-02-04T06:37:50;4.93;;;3.13;;
25327;SDS011;13279;51.300;12.394;2024-02-04T06:40:23;3.17;;;2.30;;
25327;SDS011;13279;51.300;12.394;2024-02-04T06:42:56;2.93;;;2.50;;
25327;SDS011;13279;51.300;12.394;2024-02-04T06:45:25;1.80;;;1.70;;
25327;SDS011;13279;51.300;12.394;2024-02-04T06:48:01;2.07;;;1.97;;
25327;SDS011;13279;51.300;12.394;2024-02-04T06:50:33;1.97;;;1.83;;
25327;SDS011;13279;51.300;12.394;2024-02-04T06:53:12;1.50;;;1.40;;
25327;SDS011;13279;51.300;12.394;2024-02-04T06:55:44;1.53;;;1.43;;
25327;SDS011;13279;51.300;12.394;2024-02-04T06:58:15;1.73;;;1.50;;
25327;SDS011;13279;51.300;12.394;2024-02-04T07:00:48;1.00;;;1.00;;
25327;SDS011;13279;51.300;12.394;2024-02-04T07:03:19;1.27;;;1.00;;
25327;SDS011;13279;51.300;12.394;2024-02-04T07:05:48;3.87;;;1.40;;
25327;SDS011;13279;51.300;12.394;2024-02-04T07:08:21;1.97;;;1.67;;
25327;SDS011;13279;51.300;12.394;2024-02-04T07:10:55;1.43;;;1.33;;
25327;SDS011;13279;51.300;12.394;2024-02-04T07:13:24;2.53;;;1.77;;
25327;SDS011;13279;51.300;12.394;2024-02-04T07:15:59;2.70;;;1.43;;
25327;SDS011;13279;51.300;12.394;2024-02-04T07:18:27;1.40;;;1.30;;
25327;SDS011;13279;51.300;12.394;2024-02-04T07:20:54;3.83;;;1.50;;
25327;SDS011;13279;51.300;12.394;2024-02-04T07:23:21;1.57;;;1.47;;
25327;SDS011;13279;51.300;12.394;2024-02-04T07:25:49;1.80;;;1.70;;
25327;SDS011;13279;51.300;12.394;2024-02-04T07:28:16;2.50;;;1.70;;
25327;SDS011;13279;51.300;12.394;2024-02-04T07:30:46;2.27;;;1.83;;
25327;SDS011;13279;51.300;12.394;2024-02-04T07:33:13;2.23;;;1.97;;
25327;SDS011;13279;51.300;12.394;2024-02-04T07:35:40;1.60;;;1.50;;
25327;SDS011;13279;51.300;12.394;2024-02-04T07:38:08;1.60;;;1.50;;
25327;SDS011;13279;51.300;12.394;2024-02-04T07:40:35;1.70;;;1.60;;
25327;SDS011;13279;51.300;12.394;2024-02-04T07:43:02;1.53;;;1.43;;
25327;SDS011;13279;51.300;12.394;2024-02-04T07:45:30;1.10;;;1.10;;
25327;SDS011;13279;51.300;12.394;2024-02-04T07:47:59;1.03;;;1.03;;
25327;SDS011;13279;51.300;12.394;2024-02-04T07:50:27;0.90;;;0.90;;
25327;SDS011;13279;51.300;12.394;2024-02-04T07:52:55;1.10;;;1.10;;
25327;SDS011;13279;51.300;12.394;2024-02-04T07:55:22;1.77;;;1.10;;
25327;SDS011;13279;51.300;12.394;2024-02-04T07:57:49;1.30;;;1.20;;
25327;SDS011;13279;51.300;12.394;2024-02-04T08:00:17;0.90;;;0.90;;
25327;SDS011;13279;51.300;12.394;2024-02-04T08:02:45;1.30;;;1.20;;
25327;SDS011;13279;51.300;12.394;2024-02-04T08:05:14;0.90;;;0.90;;
25327;SDS011;13279;51.300;12.394;2024-02-04T08:07:42;1.33;;;1.23;;
25327;SDS011;13279;51.300;12.394;2024-02-04T08:10:10;1.87;;;1.67;;
25327;SDS011;13279;51.300;12.394;2024-02-04T08:12:37;1.23;;;1.10;;
25327;SDS011;13279;51.300;12.394;2024-02-04T08:15:10;2.77;;;1.37;;
25327;SDS011;13279;51.300;12.394;2024-02-04T08:17:39;1.30;;;1.30;;
25327;SDS011;13279;51.300;12.394;2024-02-04T08:20:11;0.60;;;0.60;;
25327;SDS011;13279;51.300;12.394;2024-02-04T08:22:40;0.60;;;0.60;;
25327;SDS011;13279;51.300;12.394;2024-02-04T08:25:13;0.60;;;0.50;;
25327;SDS011;13279;51.300;12.394;2024-02-04T08:27:40;2.20;;;1.00;;
25327;SDS011;13279;51.300;12.394;2024-02-04T08:30:11;0.63;;;0.63;;
25327;SDS011;13279;51.300;12.394;2024-02-04T08:32:39;2.70;;;2.47;;
25327;SDS011;13279;51.300;12.394;2024-02-04T08:35:06;1.67;;;1.57;;
25327;SDS011;13279;51.300;12.394;2024-02-04T08:37:34;1.77;;;1.10;;
25327;SDS011;13279;51.300;12.394;2024-02-04T08:40:05;1.43;;;1.33;;
25327;SDS011;13279;51.300;12.394;2024-02-04T08:42:33;2.53;;;2.20;;
25327;SDS011;13279;51.300;12.394;2024-02-04T08:45:01;1.10;;;1.10;;
25327;SDS011;13279;51.300;12.394;2024-02-04T08:47:29;1.43;;;1.20;;
25327;SDS011;13279;51.300;12.394;2024-02-04T08:49:58;2.33;;;1.97;;
25327;SDS011;13279;51.300;12.394;2024-02-04T08:52:26;1.60;;;1.50;;
25327;SDS011;13279;51.300;12.394;2024-02-04T08:54:56;2.70;;;2.50;;
25327;SDS011;13279;51.300;12.394;2024-02-04T08:57:25;1.40;;;1.30;;
25327;SDS011;13279;51.300;12.394;2024-02-04T08:59:53;0.70;;;0.70;;
25327;SDS011;13279;51.300;12.394;2024-02-04T09:02:20;0.90;;;0.90;;
25327;SDS011;13279;51.300;12.394;2024-02-04T09:04:48;0.90;;;0.83;;
25327;SDS011;13279;51.300;12.394;2024-02-04T09:07:15;1.30;;;1.20;;
25327;SDS011;13279;51.300;12.394;2024-02-04T09:09:46;1.20;;;1.10;;
25327;SDS011;13279;51.300;12.394;2024-02-04T09:12:14;1.07;;;1.07;;
25327;SDS011;13279;51.300;12.394;2024-02-04T09:14:43;1.40;;;1.30;;
25327;SDS011;13279;51.300;12.394;2024-02-04T09:17:10;1.40;;;1.30;;
25327;SDS011;13279;51.300;12.394;2024-02-04T09:19:38;1.50;;;1.30;;
25327;SDS011;13279;51.300;12.394;2024-02-04T09:22:06;2.10;;;1.90;;
25327;SDS011;13279;51.300;12.394;2024-02-04T09:24:34;2.73;;;2.53;;
25327;SDS011;13279;51.300;12.394;2024-02-04T09:27:04;3.97;;;2.93;;
25327;SDS011;13279;51.300;12.394;2024-02-04T09:29:31;4.90;;;2.50;;
25327;SDS011;13279;51.300;12.394;2024-02-04T09:32:00;2.27;;;1.87;;
25327;SDS011;13279;51.300;12.394;2024-02-04T09:34:27;2.73;;;2.10;;
25327;SDS011;13279;51.300;12.394;2024-02-04T09:36:55;3.90;;;2.40;;
25327;SDS011;13279;51.300;12.394;2024-02-04T09:39:22;3.83;;;2.53;;
25327;SDS011;13279;51.300;12.394;2024-02-04T09:41:49;2.30;;;2.17;;
25327;SDS011;13279;51.300;12.394;2024-02-04T09:44:16;3.10;;;2.70;;
25327;SDS011;13279;51.300;12.394;2024-02-04T09:46:45;3.57;;;2.60;;
25327;SDS011;13279;51.300;12.394;2024-02-04T09:49:13;5.87;;;3.27;;
25327;SDS011;13279;51.300;12.394;2024-02-04T09:51:41;6.70;;;3.60;;
25327;SDS011;13279;51.300;12.394;2024-02-04T09:54:10;5.03;;;3.97;;
25327;SDS011;13279;51.300;12.394;2024-02-04T09:56:39;5.03;;;3.20;;
25327;SDS011;13279;51.300;12.394;2024-02-04T09:59:07;7.47;;;4.40;;
25327;SDS011;13279;51.300;12.394;2024-02-04T10:01:35;7.00;;;4.13;;
25327;SDS011;13279;51.300;12.394;2024-02-04T10:04:02;5.73;;;3.77;;
25327;SDS011;13279;51.300;12.394;2024-02-04T10:06:32;8.70;;;4.03;;
25327;SDS011;13279;51.300;12.394;2024-02-04T10:08:59;7.80;;;3.93;;
25327;SDS011;13279;51.300;12.394;2024-02-04T10:11:27;10.10;;;4.47;;
25327;SDS011;13279;51.300;12.394;2024-02-04T10:13:54;8.70;;;4.07;;
25327;SDS011;13279;51.300;12.394;2024-02-04T10:16:21;6.00;;;4.10;;
25327;SDS011;13279;51.300;12.394;2024-02-04T10:18:49;8.27;;;4.60;;
25327;SDS011;13279;51.300;12.394;2024-02-04T10:21:17;10.03;;;6.33;;
25327;SDS011;13279;51.300;12.394;2024-02-04T10:23:46;8.47;;;5.40;;
25327;SDS011;13279;51.300;12.394;2024-02-04T10:26:14;10.00;;;5.13;;
25327;SDS011;13279;51.300;12.394;2024-02-04T10:28:41;5.13;;;4.03;;
25327;SDS011;13279;51.300;12.394;2024-02-04T10:31:13;7.57;;;4.43;;
25327;SDS011;13279;51.300;12.394;2024-02-04T10:33:40;4.50;;;3.13;;
25327;SDS011;13279;51.300;12.394;2024-02-04T10:36:10;4.17;;;2.97;;
25327;SDS011;13279;51.300;12.394;2024-02-04T10:38:37;2.67;;;2.23;;
25327;SDS011;13279;51.300;12.394;2024-02-04T10:41:06;4.87;;;2.30;;
25327;SDS011;13279;51.300;12.394;2024-02-04T10:43:34;1.93;;;1.80;;
25327;SDS011;13279;51.300;12.394;2024-02-04T10:46:05;1.70;;;1.60;;
25327;SDS011;13279;51.300;12.394;2024-02-04T10:48:40;2.30;;;1.67;;
25327;SDS011;13279;51.300;12.394;2024-02-04T10:51:23;2.97;;;2.47;;
25327;SDS011;13279;51.300;12.394;2024-02-04T10:53:54;6.13;;;2.40;;
25327;SDS011;13279;51.300;12.394;2024-02-04T10:56:25;8.60;;;3.07;;
25327;SDS011;13279;51.300;12.394;2024-02-04T10:58:56;10.80;;;3.67;;
25327;SDS011;13279;51.300;12.394;2024-02-04T11:01:25;3.60;;;2.97;;
25327;SDS011;13279;51.300;12.394;2024-02-04T11:03:53;6.83;;;3.33;;
25327;SDS011;13279;51.300;12.394;2024-02-04T11:06:22;4.60;;;3.27;;
25327;SDS011;13279;51.300;12.394;2024-02-04T11:09:04;4.63;;;3.30;;
25327;SDS011;13279;51.300;12.394;2024-02-04T11:11:35;3.50;;;3.20;;
25327;SDS011;13279;51.300;12.394;2024-02-04T11:14:03;7.53;;;3.43;;
25327;SDS011;13279;51.300;12.394;2024-02-04T11:16:47;3.57;;;3.23;;
25327;SDS011;13279;51.300;12.394;2024-02-04T11:19:32;5.73;;;4.07;;
25327;SDS011;13279;51.300;12.394;2024-02-04T11:22:18;6.63;;;4.17;;
25327;SDS011;13279;51.300;12.394;2024-02-04T11:25:05;4.40;;;3.53;;
25327;SDS011;13279;51.300;12.394;2024-02-04T11:27:45;12.57;;;6.20;;
25327;SDS011;13279;51.300;12.394;2024-02-04T11:30:13;7.33;;;4.77;;
25327;SDS011;13279;51.300;12.394;2024-02-04T11:32:41;5.63;;;3.63;;
25327;SDS011;13279;51.300;12.394;2024-02-04T11:35:09;7.13;;;4.60;;
25327;SDS011;13279;51.300;12.394;2024-02-04T11:37:37;4.53;;;4.10;;
25327;SDS011;13279;51.300;12.394;2024-02-04T11:40:07;5.17;;;3.90;;
25327;SDS011;13279;51.300;12.394;2024-02-04T11:42:40;7.20;;;3.90;;
25327;SDS011;13279;51.300;12.394;2024-02-04T11:45:10;4.67;;;3.83;;
25327;SDS011;13279;51.300;12.394;2024-02-04T11:47:39;3.90;;;3.30;;
25327;SDS011;13279;51.300;12.394;2024-02-04T11:50:07;4.97;;;3.50;;
25327;SDS011;13279;51.300;12.394;2024-02-04T11:52:36;5.70;;;4.47;;
25327;SDS011;13279;51.300;12.394;2024-02-04T11:55:03;5.13;;;4.00;;
25327;SDS011;13279;51.300;12.394;2024-02-04T11:57:33;5.23;;;3.60;;
25327;SDS011;13279;51.300;12.394;2024-02-04T12:00:00;4.07;;;3.43;;
25327;SDS011;13279;51.300;12.394;2024-02-04T12:02:32;3.93;;;3.40;;
25327;SDS011;13279;51.300;12.394;2024-02-04T12:05:00;6.07;;;3.13;;
25327;SDS011;13279;51.300;12.394;2024-02-04T12:07:28;3.57;;;3.23;;
25327;SDS011;13279;51.300;12.394;2024-02-04T12:09:56;5.00;;;3.80;;
25327;SDS011;13279;51.300;12.394;2024-02-04T12:12:24;4.53;;;3.87;;
25327;SDS011;13279;51.300;12.394;2024-02-04T12:14:54;9.13;;;3.83;;
25327;SDS011;13279;51.300;12.394;2024-02-04T12:17:22;4.53;;;3.83;;
25327;SDS011;13279;51.300;12.394;2024-02-04T12:19:52;5.57;;;3.60;;
25327;SDS011;13279;51.300;12.394;2024-02-04T12:22:22;4.47;;;3.70;;
25327;SDS011;13279;51.300;12.394;2024-02-04T12:24:50;4.07;;;3.50;;
25327;SDS011;13279;51.300;12.394;2024-02-04T12:27:18;7.67;;;3.80;;
25327;SDS011;13279;51.300;12.394;2024-02-04T12:29:52;7.80;;;4.60;;
25327;SDS011;13279;51.300;12.394;2024-02-04T12:32:27;5.30;;;3.80;;
25327;SDS011;13279;51.300;12.394;2024-02-04T12:34:59;4.77;;;4.00;;
25327;SDS011;13279;51.300;12.394;2024-02-04T12:37:32;5.73;;;3.63;;
25327;SDS011;13279;51.300;12.394;2024-02-04T12:40:02;4.87;;;3.47;;
25327;SDS011;13279;51.300;12.394;2024-02-04T12:42:37;3.73;;;2.63;;
25327;SDS011;13279;51.300;12.394;2024-02-04T12:45:06;3.50;;;3.20;;
25327;SDS011;13279;51.300;12.394;2024-02-04T12:47:34;4.87;;;3.40;;
25327;SDS011;13279;51.300;12.394;2024-02-04T12:50:05;4.27;;;3.10;;
25327;SDS011;13279;51.300;12.394;2024-02-04T12:52:36;4.17;;;3.77;;
25327;SDS011;13279;51.300;12.394;2024-02-04T12:55:05;2.57;;;2.37;;
25327;SDS011;13279;51.300;12.394;2024-02-04T12:57:37;4.63;;;2.90;;
25327;SDS011;13279;51.300;12.394;2024-02-04T13:00:06;2.87;;;2.50;;
25327;SDS011;13279;51.300;12.394;2024-02-04T13:02:36;2.60;;;2.40;;
25327;SDS011;13279;51.300;12.394;2024-02-04T13:05:05;3.47;;;2.50;;
25327;SDS011;13279;51.300;12.394;2024-02-04T13:07:34;2.83;;;2.30;;
25327;SDS011;13279;51.300;12.394;2024-02-04T13:10:01;4.03;;;2.57;;
25327;SDS011;13279;51.300;12.394;2024-02-04T13:12:30;4.10;;;2.20;;
25327;SDS011;13279;51.300;12.394;2024-02-04T13:15:05;3.37;;;2.13;;
25327;SDS011;13279;51.300;12.394;2024-02-04T13:17:35;5.27;;;2.87;;
25327;SDS011;13279;51.300;12.394;2024-02-04T13:20:03;2.90;;;2.37;;
25327;SDS011;13279;51.300;12.394;2024-02-04T13:22:35;3.20;;;2.20;;
25327;SDS011;13279;51.300;12.394;2024-02-04T13:25:03;3.47;;;2.30;;
25327;SDS011;13279;51.300;12.394;2024-02-04T13:27:37;4.10;;;2.90;;
25327;SDS011;13279;51.300;12.394;2024-02-04T13:30:09;4.40;;;3.37;;
25327;SDS011;13279;51.300;12.394;2024-02-04T13:32:39;6.27;;;3.43;;
25327;SDS011;13279;51.300;12.394;2024-02-04T13:35:09;2.90;;;2.47;;
25327;SDS011;13279;51.300;12.394;2024-02-04T13:37:39;3.57;;;2.93;;
25327;SDS011;13279;51.300;12.394;2024-02-04T13:40:13;2.37;;;2.17;;
25327;SDS011;13279;51.300;12.394;2024-02-04T13:42:42;4.50;;;2.47;;
25327;SDS011;13279;51.300;12.394;2024-02-04T13:45:09;3.30;;;2.50;;
25327;SDS011;13279;51.300;12.394;2024-02-04T13:47:39;3.13;;;2.87;;
25327;SDS011;13279;51.300;12.394;2024-02-04T13:50:06;6.97;;;3.67;;
25327;SDS011;13279;51.300;12.394;2024-02-04T13:52:36;4.30;;;2.20;;
25327;SDS011;13279;51.300;12.394;2024-02-04T13:55:04;4.60;;;2.23;;
25327;SDS011;13279;51.300;12.394;2024-02-04T13:57:32;2.80;;;2.57;;
25327;SDS011;13279;51.300;12.394;2024-02-04T14:00:00;2.50;;;2.30;;
25327;SDS011;13279;51.300;12.394;2024-02-04T14:02:30;3.57;;;2.33;;
25327;SDS011;13279;51.300;12.394;2024-02-04T14:04:57;11.03;;;4.17;;
25327;SDS011;13279;51.300;12.394;2024-02-04T14:07:25;6.57;;;4.10;;
25327;SDS011;13279;51.300;12.394;2024-02-04T14:09:54;6.37;;;3.33;;
25327;SDS011;13279;51.300;12.394;2024-02-04T14:12:22;1.83;;;1.70;;
25327;SDS011;13279;51.300;12.394;2024-02-04T14:14:49;1.83;;;1.70;;
25327;SDS011;13279;51.300;12.394;2024-02-04T14:17:24;3.50;;;2.50;;
25327;SDS011;13279;51.300;12.394;2024-02-04T14:20:01;1.90;;;1.67;;
25327;SDS011;13279;51.300;12.394;2024-02-04T14:22:47;5.50;;;2.60;;
25327;SDS011;13279;51.300;12.394;2024-02-04T14:25:28;7.53;;;4.07;;
25327;SDS011;13279;51.300;12.394;2024-02-04T14:28:17;7.03;;;4.30;;
25327;SDS011;13279;51.300;12.394;2024-02-04T14:31:01;2.90;;;1.93;;
25327;SDS011;13279;51.300;12.394;2024-02-04T14:33:42;5.27;;;3.37;;
25327;SDS011;13279;51.300;12.394;2024-02-04T14:36:24;3.57;;;2.10;;
25327;SDS011;13279;51.300;12.394;2024-02-04T14:42:16;5.10;;;1.83;;
25327;SDS011;13279;51.300;12.394;2024-02-04T14:45:00;2.17;;;1.90;;
25327;SDS011;13279;51.300;12.394;2024-02-04T14:47:55;2.33;;;1.50;;
25327;SDS011;13279;51.300;12.394;2024-02-04T14:50:38;9.27;;;3.83;;
25327;SDS011;13279;51.300;12.394;2024-02-04T14:53:16;2.90;;;2.10;;
25327;SDS011;13279;51.300;12.394;2024-02-04T14:55:49;2.67;;;1.70;;
25327;SDS011;13279;51.300;12.394;2024-02-04T14:58:44;2.20;;;2.00;;
25327;SDS011;13279;51.300;12.394;2024-02-04T15:04:19;2.17;;;1.83;;
25327;SDS011;13279;51.300;12.394;2024-02-04T15:07:04;2.77;;;1.87;;
25327;SDS011;13279;51.300;12.394;2024-02-04T15:09:50;2.30;;;2.10;;
25327;SDS011;13279;51.300;12.394;2024-02-04T15:12:39;1.90;;;1.80;;
25327;SDS011;13279;51.300;12.394;2024-02-04T15:15:40;3.40;;;1.77;;
25327;SDS011;13279;51.300;12.394;2024-02-04T15:22:06;2.53;;;1.63;;
25327;SDS011;13279;51.300;12.394;2024-02-04T15:24:51;1.90;;;1.57;;
25327;SDS011;13279;51.300;12.394;2024-02-04T15:28:29;2.13;;;1.33;;
25327;SDS011;13279;51.300;12.394;2024-02-04T15:31:38;3.67;;;1.60;;
25327;SDS011;13279;51.300;12.394;2024-02-04T15:34:20;2.00;;;1.80;;
25327;SDS011;13279;51.300;12.394;2024-02-04T15:36:48;2.87;;;1.83;;